UAL235 KLAX-KSFO
Flight info
| Callsign | UAL235 |
|---|---|
| Flight time | 0h 56m |
| Altitude | 32000 |
| Route | SUMMR2 STOKD DCT SERFR SERFR4 |
| Aircraft | B739/M-SDE2E3FGHIRWXY/LB1 |
Departure
| Time | 2026-04-22 01:15 |
|---|---|
| Airport | Los Angeles International Airport (KLAX) |
Arrival
| Time | 2026-04-22 02:11 |
|---|---|
| Airport | San Francisco International Airport (KSFO) |
| Time | Latitude | Longitude | Altitude | Speed | Heading |
|---|---|---|---|---|---|
| 2026-04-22 00:55 | 33.94167 | -118.39779 | 125 ft | 0 kts | 82° |
| 2026-04-22 00:56 | 33.94168 | -118.39775 | 125 ft | 0 kts | 82° |
| 2026-04-22 00:56 | 33.94168 | -118.39772 | 125 ft | 0 kts | 82° |
| 2026-04-22 01:06 | 33.94167 | -118.39781 | 125 ft | 2 kts | 74° |
| 2026-04-22 01:06 | 33.94163 | -118.39801 | 125 ft | 2 kts | 81° |
| 2026-04-22 01:06 | 33.94159 | -118.39820 | 123 ft | 2 kts | 110° |
| 2026-04-22 01:06 | 33.94168 | -118.39837 | 124 ft | 2 kts | 172° |
| 2026-04-22 01:07 | 33.94177 | -118.39838 | 121 ft | 0 kts | 173° |
| 2026-04-22 01:09 | 33.94167 | -118.39837 | 121 ft | 4 kts | 174° |
| 2026-04-22 01:09 | 33.94125 | -118.39832 | 121 ft | 8 kts | 174° |
| 2026-04-22 01:09 | 33.94071 | -118.39827 | 124 ft | 8 kts | 181° |
| 2026-04-22 01:10 | 33.94013 | -118.39823 | 122 ft | 10 kts | 173° |
| 2026-04-22 01:10 | 33.93939 | -118.39801 | 123 ft | 12 kts | 147° |
| 2026-04-22 01:10 | 33.93908 | -118.39717 | 125 ft | 12 kts | 87° |
| 2026-04-22 01:10 | 33.93918 | -118.39603 | 125 ft | 15 kts | 83° |
| 2026-04-22 01:11 | 33.93933 | -118.39457 | 124 ft | 20 kts | 83° |
| 2026-04-22 01:11 | 33.93952 | -118.39280 | 125 ft | 23 kts | 83° |
| 2026-04-22 01:11 | 33.93972 | -118.39086 | 125 ft | 23 kts | 83° |
| 2026-04-22 01:11 | 33.93991 | -118.38897 | 125 ft | 22 kts | 83° |
| 2026-04-22 01:12 | 33.94009 | -118.38715 | 125 ft | 22 kts | 83° |
| 2026-04-22 01:12 | 33.94028 | -118.38535 | 121 ft | 21 kts | 83° |
| 2026-04-22 01:12 | 33.94046 | -118.38362 | 123 ft | 21 kts | 83° |
| 2026-04-22 01:12 | 33.94060 | -118.38222 | 125 ft | 15 kts | 83° |
| 2026-04-22 01:13 | 33.94072 | -118.38111 | 125 ft | 10 kts | 83° |
| 2026-04-22 01:13 | 33.94077 | -118.38059 | 125 ft | 4 kts | 83° |
| 2026-04-22 01:13 | 33.94078 | -118.38035 | 125 ft | 2 kts | 94° |
| 2026-04-22 01:13 | 33.94073 | -118.38021 | 125 ft | 4 kts | 123° |
| 2026-04-22 01:14 | 33.94032 | -118.37999 | 123 ft | 6 kts | 174° |
| 2026-04-22 01:14 | 33.93993 | -118.38012 | 125 ft | 6 kts | 221° |
| 2026-04-22 01:14 | 33.93981 | -118.38061 | 122 ft | 9 kts | 263° |
| 2026-04-22 01:14 | 33.93947 | -118.38400 | 125 ft | 81 kts | 263° |
| 2026-04-22 01:15 | 33.93847 | -118.39371 | 126 ft | 150 kts | 263° |
| 2026-04-22 01:15 | 33.93700 | -118.40759 | 553 ft | 173 kts | 261° |
| 2026-04-22 01:15 | 33.93544 | -118.42214 | 1449 ft | 178 kts | 262° |
| 2026-04-22 01:15 | 33.93343 | -118.43714 | 2289 ft | 183 kts | 260° |
| 2026-04-22 01:16 | 33.93108 | -118.45196 | 3154 ft | 175 kts | 259° |
| 2026-04-22 01:16 | 33.92879 | -118.46586 | 4042 ft | 163 kts | 259° |
| 2026-04-22 01:16 | 33.92685 | -118.47915 | 4681 ft | 167 kts | 264° |
| 2026-04-22 01:16 | 33.92599 | -118.49418 | 4926 ft | 191 kts | 266° |
| 2026-04-22 01:17 | 33.92532 | -118.51145 | 4948 ft | 223 kts | 268° |
| 2026-04-22 01:17 | 33.92471 | -118.53072 | 4946 ft | 234 kts | 266° |
| 2026-04-22 01:17 | 33.92369 | -118.55048 | 4933 ft | 237 kts | 265° |
| 2026-04-22 01:17 | 33.92235 | -118.57027 | 4945 ft | 235 kts | 264° |
| 2026-04-22 01:18 | 33.92085 | -118.58974 | 4950 ft | 232 kts | 264° |
| 2026-04-22 01:18 | 33.91928 | -118.60921 | 5050 ft | 238 kts | 264° |
| 2026-04-22 01:18 | 33.91767 | -118.62967 | 5505 ft | 251 kts | 266° |
| 2026-04-22 01:18 | 33.91721 | -118.65095 | 6287 ft | 257 kts | 269° |
| 2026-04-22 01:19 | 33.91724 | -118.67259 | 7092 ft | 259 kts | 269° |
| 2026-04-22 01:19 | 33.91731 | -118.69391 | 7975 ft | 258 kts | 268° |
| 2026-04-22 01:19 | 33.91734 | -118.71552 | 8843 ft | 259 kts | 268° |
| 2026-04-22 01:19 | 33.91733 | -118.73723 | 9718 ft | 258 kts | 267° |
| 2026-04-22 01:20 | 33.91727 | -118.75898 | 10432 ft | 265 kts | 267° |
| 2026-04-22 01:20 | 33.91716 | -118.78223 | 10612 ft | 289 kts | 267° |
| 2026-04-22 01:20 | 33.91703 | -118.80738 | 10790 ft | 312 kts | 267° |
| 2026-04-22 01:20 | 33.91691 | -118.83419 | 11145 ft | 325 kts | 268° |
| 2026-04-22 01:21 | 33.91743 | -118.86165 | 11784 ft | 330 kts | 270° |
| 2026-04-22 01:21 | 33.91840 | -118.88930 | 12544 ft | 330 kts | 270° |
| 2026-04-22 01:21 | 33.91939 | -118.91704 | 13282 ft | 332 kts | 269° |
| 2026-04-22 01:21 | 33.92029 | -118.94489 | 13983 ft | 333 kts | 269° |
| 2026-04-22 01:22 | 33.92112 | -118.97284 | 14593 ft | 336 kts | 269° |
| 2026-04-22 01:22 | 33.92235 | -119.00104 | 15198 ft | 339 kts | 275° |
| 2026-04-22 01:22 | 33.92864 | -119.02833 | 15801 ft | 348 kts | 289° |
| 2026-04-22 01:22 | 33.94057 | -119.05403 | 16434 ft | 354 kts | 296° |
| 2026-04-22 01:23 | 33.95389 | -119.07910 | 17050 ft | 357 kts | 297° |
| 2026-04-22 01:23 | 33.96740 | -119.10430 | 17638 ft | 359 kts | 296° |
| 2026-04-22 01:23 | 33.98080 | -119.12977 | 18238 ft | 360 kts | 296° |
| 2026-04-22 01:23 | 33.99408 | -119.15542 | 18775 ft | 362 kts | 296° |
| 2026-04-22 01:24 | 34.00804 | -119.18088 | 19269 ft | 369 kts | 302° |
| 2026-04-22 01:24 | 34.02709 | -119.20249 | 19773 ft | 382 kts | 315° |
| 2026-04-22 01:24 | 34.04879 | -119.22141 | 20311 ft | 386 kts | 317° |
| 2026-04-22 01:24 | 34.07090 | -119.23999 | 20821 ft | 388 kts | 317° |
| 2026-04-22 01:25 | 34.09291 | -119.25841 | 21289 ft | 391 kts | 317° |
| 2026-04-22 01:25 | 34.11527 | -119.27725 | 21768 ft | 393 kts | 317° |
| 2026-04-22 01:25 | 34.13778 | -119.29638 | 22247 ft | 395 kts | 316° |
| 2026-04-22 01:25 | 34.16025 | -119.31561 | 22709 ft | 397 kts | 316° |
| 2026-04-22 01:26 | 34.18285 | -119.33503 | 23183 ft | 399 kts | 316° |
| 2026-04-22 01:26 | 34.20552 | -119.35458 | 23647 ft | 401 kts | 316° |
| 2026-04-22 01:26 | 34.22807 | -119.37404 | 24029 ft | 404 kts | 316° |
| 2026-04-22 01:26 | 34.25097 | -119.39383 | 24413 ft | 406 kts | 316° |
| 2026-04-22 01:27 | 34.27397 | -119.41371 | 24804 ft | 407 kts | 316° |
| 2026-04-22 01:27 | 34.29709 | -119.43370 | 25185 ft | 409 kts | 316° |
| 2026-04-22 01:27 | 34.32031 | -119.45381 | 25558 ft | 412 kts | 316° |
| 2026-04-22 01:27 | 34.34368 | -119.47405 | 25926 ft | 414 kts | 316° |
| 2026-04-22 01:28 | 34.36714 | -119.49437 | 26285 ft | 416 kts | 316° |
| 2026-04-22 01:28 | 34.39074 | -119.51484 | 26639 ft | 418 kts | 316° |
| 2026-04-22 01:28 | 34.41426 | -119.53569 | 26986 ft | 417 kts | 312° |
| 2026-04-22 01:28 | 34.43543 | -119.55934 | 27329 ft | 413 kts | 307° |
| 2026-04-22 01:29 | 34.45557 | -119.58424 | 27675 ft | 413 kts | 306° |
| 2026-04-22 01:29 | 34.47549 | -119.60951 | 28013 ft | 415 kts | 306° |
| 2026-04-22 01:29 | 34.49520 | -119.63455 | 28402 ft | 416 kts | 306° |
| 2026-04-22 01:29 | 34.51554 | -119.66019 | 28838 ft | 416 kts | 306° |
| 2026-04-22 01:30 | 34.53539 | -119.68497 | 29417 ft | 412 kts | 306° |
| 2026-04-22 01:30 | 34.55537 | -119.70977 | 29950 ft | 411 kts | 306° |
| 2026-04-22 01:30 | 34.57535 | -119.73450 | 30379 ft | 410 kts | 307° |
| 2026-04-22 01:30 | 34.59533 | -119.75920 | 30774 ft | 409 kts | 307° |
| 2026-04-22 01:31 | 34.61524 | -119.78378 | 31178 ft | 407 kts | 307° |
| 2026-04-22 01:31 | 34.63513 | -119.80838 | 31519 ft | 407 kts | 307° |
| 2026-04-22 01:31 | 34.65502 | -119.83300 | 31846 ft | 408 kts | 307° |
| 2026-04-22 01:31 | 34.67492 | -119.85763 | 32095 ft | 407 kts | 307° |
| 2026-04-22 01:32 | 34.71440 | -119.90657 | 32102 ft | 407 kts | 307° |
| 2026-04-22 01:32 | 34.75404 | -119.95576 | 32104 ft | 405 kts | 307° |
| 2026-04-22 01:33 | 34.79342 | -120.00470 | 32105 ft | 404 kts | 307° |
| 2026-04-22 01:33 | 34.83268 | -120.05360 | 32108 ft | 403 kts | 307° |
| 2026-04-22 01:34 | 34.87190 | -120.10251 | 32103 ft | 403 kts | 307° |
| 2026-04-22 01:34 | 34.91119 | -120.15158 | 32107 ft | 404 kts | 307° |
| 2026-04-22 01:35 | 34.95020 | -120.20036 | 32117 ft | 404 kts | 307° |
| 2026-04-22 01:35 | 34.98949 | -120.24955 | 32109 ft | 405 kts | 307° |
| 2026-04-22 01:36 | 35.02883 | -120.29890 | 32104 ft | 405 kts | 307° |
| 2026-04-22 01:36 | 35.06810 | -120.34821 | 32100 ft | 404 kts | 307° |
| 2026-04-22 01:37 | 35.10104 | -120.38881 | 32107 ft | 405 kts | 309° |
| 2026-04-22 01:37 | 35.14945 | -120.44290 | 32113 ft | 405 kts | 310° |
| 2026-04-22 01:38 | 35.18448 | -120.48154 | 32113 ft | 403 kts | 310° |
| 2026-04-22 01:38 | 35.22576 | -120.52759 | 32110 ft | 404 kts | 309° |
| 2026-04-22 01:39 | 35.26722 | -120.57417 | 32097 ft | 404 kts | 309° |
| 2026-04-22 01:39 | 35.30868 | -120.62088 | 32094 ft | 404 kts | 309° |
| 2026-04-22 01:40 | 35.34975 | -120.66720 | 32092 ft | 403 kts | 309° |
| 2026-04-22 01:40 | 35.39098 | -120.71378 | 32106 ft | 403 kts | 309° |
| 2026-04-22 01:41 | 35.43220 | -120.76041 | 32094 ft | 402 kts | 309° |
| 2026-04-22 01:41 | 35.47325 | -120.80689 | 32119 ft | 401 kts | 309° |
| 2026-04-22 01:42 | 35.51648 | -120.85110 | 32129 ft | 406 kts | 314° |
| 2026-04-22 01:42 | 35.56184 | -120.89228 | 32122 ft | 407 kts | 315° |
| 2026-04-22 01:43 | 35.60740 | -120.93371 | 32115 ft | 406 kts | 315° |
| 2026-04-22 01:43 | 35.65258 | -120.97544 | 32109 ft | 405 kts | 314° |
| 2026-04-22 01:44 | 35.69721 | -121.01699 | 32110 ft | 404 kts | 314° |
| 2026-04-22 01:44 | 35.74195 | -121.05876 | 32112 ft | 403 kts | 314° |
| 2026-04-22 01:45 | 35.78665 | -121.10057 | 32105 ft | 403 kts | 314° |
| 2026-04-22 01:45 | 35.83127 | -121.14234 | 32113 ft | 403 kts | 314° |
| 2026-04-22 01:46 | 35.87571 | -121.18401 | 32103 ft | 403 kts | 314° |
| 2026-04-22 01:46 | 35.92045 | -121.22601 | 32104 ft | 403 kts | 314° |
| 2026-04-22 01:47 | 35.96519 | -121.26807 | 32107 ft | 404 kts | 314° |
| 2026-04-22 01:47 | 36.00959 | -121.30988 | 32105 ft | 404 kts | 314° |
| 2026-04-22 01:48 | 36.05428 | -121.35202 | 32104 ft | 403 kts | 314° |
| 2026-04-22 01:48 | 36.10060 | -121.39207 | 32108 ft | 408 kts | 318° |
| 2026-04-22 01:49 | 36.14880 | -121.42882 | 31943 ft | 411 kts | 319° |
| 2026-04-22 01:49 | 36.17337 | -121.44751 | 31441 ft | 411 kts | 319° |
| 2026-04-22 01:49 | 36.19755 | -121.46600 | 30911 ft | 404 kts | 319° |
| 2026-04-22 01:50 | 36.22097 | -121.48405 | 30394 ft | 399 kts | 318° |
| 2026-04-22 01:50 | 36.24442 | -121.50226 | 29754 ft | 395 kts | 318° |
| 2026-04-22 01:50 | 36.26752 | -121.52029 | 29194 ft | 389 kts | 318° |
| 2026-04-22 01:50 | 36.29028 | -121.53808 | 28657 ft | 383 kts | 318° |
| 2026-04-22 01:51 | 36.31268 | -121.55560 | 28104 ft | 378 kts | 317° |
| 2026-04-22 01:51 | 36.33470 | -121.57283 | 27589 ft | 370 kts | 317° |
| 2026-04-22 01:51 | 36.35627 | -121.58974 | 27080 ft | 363 kts | 317° |
| 2026-04-22 01:51 | 36.37749 | -121.60641 | 26548 ft | 358 kts | 317° |
| 2026-04-22 01:52 | 36.39829 | -121.62275 | 26080 ft | 352 kts | 317° |
| 2026-04-22 01:52 | 36.41888 | -121.63895 | 25581 ft | 348 kts | 317° |
| 2026-04-22 01:52 | 36.43896 | -121.65475 | 25101 ft | 344 kts | 317° |
| 2026-04-22 01:52 | 36.45911 | -121.67061 | 24627 ft | 341 kts | 317° |
| 2026-04-22 01:53 | 36.47904 | -121.68628 | 24151 ft | 338 kts | 317° |
| 2026-04-22 01:53 | 36.49884 | -121.70187 | 23717 ft | 334 kts | 316° |
| 2026-04-22 01:53 | 36.51816 | -121.71706 | 23456 ft | 324 kts | 316° |
| 2026-04-22 01:53 | 36.53705 | -121.73194 | 22986 ft | 319 kts | 316° |
| 2026-04-22 01:54 | 36.55561 | -121.74660 | 22545 ft | 314 kts | 317° |
| 2026-04-22 01:54 | 36.57368 | -121.76091 | 22120 ft | 310 kts | 317° |
| 2026-04-22 01:54 | 36.59184 | -121.77532 | 21657 ft | 308 kts | 317° |
| 2026-04-22 01:54 | 36.60988 | -121.78963 | 21200 ft | 307 kts | 317° |
| 2026-04-22 01:55 | 36.62792 | -121.80397 | 20758 ft | 309 kts | 318° |
| 2026-04-22 01:55 | 36.64620 | -121.81854 | 20316 ft | 318 kts | 318° |
| 2026-04-22 01:55 | 36.66519 | -121.83367 | 19816 ft | 328 kts | 319° |
| 2026-04-22 01:55 | 36.68453 | -121.84900 | 19313 ft | 328 kts | 320° |
| 2026-04-22 01:56 | 36.70355 | -121.86405 | 18821 ft | 327 kts | 320° |
| 2026-04-22 01:56 | 36.72276 | -121.87929 | 18337 ft | 326 kts | 321° |
| 2026-04-22 01:56 | 36.74236 | -121.89360 | 17785 ft | 330 kts | 329° |
| 2026-04-22 01:56 | 36.76478 | -121.90207 | 17136 ft | 341 kts | 340° |
| 2026-04-22 01:57 | 36.78797 | -121.90824 | 16639 ft | 340 kts | 341° |
| 2026-04-22 01:57 | 36.81106 | -121.91420 | 16163 ft | 338 kts | 342° |
| 2026-04-22 01:57 | 36.83401 | -121.92026 | 15694 ft | 336 kts | 342° |
| 2026-04-22 01:57 | 36.85679 | -121.92643 | 15233 ft | 334 kts | 342° |
| 2026-04-22 01:58 | 36.87943 | -121.93268 | 14789 ft | 332 kts | 342° |
| 2026-04-22 01:58 | 36.90200 | -121.93898 | 14345 ft | 331 kts | 342° |
| 2026-04-22 01:58 | 36.92447 | -121.94526 | 13899 ft | 330 kts | 343° |
| 2026-04-22 01:58 | 36.94688 | -121.95154 | 13393 ft | 330 kts | 342° |
| 2026-04-22 01:59 | 36.96901 | -121.95878 | 12849 ft | 329 kts | 339° |
| 2026-04-22 01:59 | 36.99080 | -121.96721 | 12388 ft | 327 kts | 338° |
| 2026-04-22 01:59 | 37.01239 | -121.97590 | 11937 ft | 325 kts | 338° |
| 2026-04-22 01:59 | 37.03391 | -121.98457 | 11497 ft | 324 kts | 338° |
| 2026-04-22 02:00 | 37.05532 | -121.99311 | 11062 ft | 322 kts | 339° |
| 2026-04-22 02:00 | 37.07640 | -122.00146 | 10632 ft | 321 kts | 339° |
| 2026-04-22 02:00 | 37.09746 | -122.00973 | 10455 ft | 312 kts | 339° |
| 2026-04-22 02:00 | 37.11785 | -122.01771 | 10310 ft | 302 kts | 339° |
| 2026-04-22 02:01 | 37.13757 | -122.02543 | 10155 ft | 292 kts | 339° |
| 2026-04-22 02:01 | 37.15666 | -122.03290 | 10051 ft | 282 kts | 339° |
| 2026-04-22 02:01 | 37.17533 | -122.04022 | 9733 ft | 280 kts | 339° |
| 2026-04-22 02:01 | 37.19389 | -122.04752 | 9453 ft | 277 kts | 339° |
| 2026-04-22 02:02 | 37.21235 | -122.05477 | 9092 ft | 277 kts | 339° |
| 2026-04-22 02:02 | 37.23046 | -122.06188 | 8753 ft | 274 kts | 338° |
| 2026-04-22 02:02 | 37.24861 | -122.06900 | 8448 ft | 272 kts | 339° |
| 2026-04-22 02:02 | 37.26665 | -122.07607 | 8116 ft | 271 kts | 338° |
| 2026-04-22 02:03 | 37.28461 | -122.08313 | 7739 ft | 270 kts | 338° |
| 2026-04-22 02:03 | 37.30233 | -122.09010 | 7451 ft | 265 kts | 338° |
| 2026-04-22 02:03 | 37.31996 | -122.09706 | 7072 ft | 265 kts | 339° |
| 2026-04-22 02:03 | 37.33748 | -122.10397 | 6751 ft | 263 kts | 338° |
| 2026-04-22 02:04 | 37.37243 | -122.11775 | 6034 ft | 263 kts | 338° |
| 2026-04-22 02:04 | 37.38995 | -122.12417 | 5691 ft | 262 kts | 340° |
| 2026-04-22 02:04 | 37.40756 | -122.13012 | 5380 ft | 260 kts | 341° |
| 2026-04-22 02:05 | 37.42503 | -122.13602 | 5067 ft | 259 kts | 341° |
| 2026-04-22 02:05 | 37.44234 | -122.14191 | 4753 ft | 258 kts | 341° |
| 2026-04-22 02:05 | 37.45940 | -122.14773 | 4436 ft | 256 kts | 341° |
| 2026-04-22 02:05 | 37.47616 | -122.15345 | 4348 ft | 240 kts | 341° |
| 2026-04-22 02:06 | 37.49172 | -122.15876 | 4225 ft | 222 kts | 340° |
| 2026-04-22 02:06 | 37.50599 | -122.16363 | 4104 ft | 203 kts | 339° |
| 2026-04-22 02:06 | 37.51907 | -122.16810 | 3954 ft | 186 kts | 339° |
| 2026-04-22 02:06 | 37.53014 | -122.17435 | 3678 ft | 167 kts | 309° |
| 2026-04-22 02:07 | 37.53650 | -122.18621 | 3295 ft | 163 kts | 300° |
| 2026-04-22 02:07 | 37.54296 | -122.19803 | 2862 ft | 164 kts | 301° |
| 2026-04-22 02:07 | 37.54912 | -122.20967 | 2598 ft | 160 kts | 298° |
| 2026-04-22 02:07 | 37.55469 | -122.22188 | 2402 ft | 162 kts | 295° |
| 2026-04-22 02:08 | 37.56007 | -122.23449 | 2181 ft | 163 kts | 294° |
| 2026-04-22 02:08 | 37.56518 | -122.24666 | 1963 ft | 150 kts | 294° |
| 2026-04-22 02:08 | 37.56996 | -122.25816 | 1778 ft | 148 kts | 294° |
| 2026-04-22 02:08 | 37.57481 | -122.26983 | 1579 ft | 152 kts | 294° |
| 2026-04-22 02:09 | 37.57975 | -122.28169 | 1391 ft | 152 kts | 294° |
| 2026-04-22 02:09 | 37.58457 | -122.29324 | 1174 ft | 146 kts | 294° |
| 2026-04-22 02:09 | 37.58905 | -122.30399 | 975 ft | 135 kts | 294° |
| 2026-04-22 02:09 | 37.59324 | -122.31403 | 808 ft | 125 kts | 294° |
| 2026-04-22 02:10 | 37.59725 | -122.32365 | 664 ft | 126 kts | 293° |
| 2026-04-22 02:10 | 37.60127 | -122.33360 | 507 ft | 129 kts | 294° |
| 2026-04-22 02:10 | 37.60546 | -122.34373 | 357 ft | 130 kts | 295° |
| 2026-04-22 02:10 | 37.60975 | -122.35383 | 137 ft | 131 kts | 297° |
| 2026-04-22 02:11 | 37.61405 | -122.36398 | 16 ft | 123 kts | 298° |
| 2026-04-22 02:11 | 37.61729 | -122.37165 | 21 ft | 69 kts | 298° |
| 2026-04-22 02:11 | 37.61878 | -122.37522 | 18 ft | 36 kts | 297° |
| 2026-04-22 02:11 | 37.61974 | -122.37751 | 22 ft | 21 kts | 297° |
| 2026-04-22 02:12 | 37.61991 | -122.37890 | 22 ft | 13 kts | 251° |
| 2026-04-22 02:12 | 37.61943 | -122.37967 | 21 ft | 10 kts | 231° |
| 2026-04-22 02:12 | 37.61911 | -122.38042 | 20 ft | 10 kts | 264° |
| 2026-04-22 02:12 | 37.61931 | -122.38118 | 22 ft | 9 kts | 298° |
| 2026-04-22 02:13 | 37.61960 | -122.38187 | 22 ft | 9 kts | 297° |
| 2026-04-22 02:13 | 37.61988 | -122.38254 | 22 ft | 9 kts | 298° |
| 2026-04-22 02:13 | 37.62016 | -122.38320 | 22 ft | 8 kts | 298° |
| 2026-04-22 02:13 | 37.62044 | -122.38386 | 21 ft | 9 kts | 298° |
| 2026-04-22 02:14 | 37.62064 | -122.38450 | 19 ft | 6 kts | 269° |
| 2026-04-22 02:14 | 37.62046 | -122.38470 | 19 ft | 4 kts | 191° |
| 2026-04-22 02:14 | 37.62020 | -122.38465 | 18 ft | 4 kts | 168° |
| 2026-04-22 02:14 | 37.61997 | -122.38457 | 18 ft | 3 kts | 164° |
| 2026-04-22 02:15 | 37.61986 | -122.38453 | 18 ft | 1 kts | 164° |
| 2026-04-22 02:15 | 37.61985 | -122.38453 | 18 ft | 0 kts | 164° |